Time;durP1;ratioP1;P1;durP2;ratioP2;P2;SDS_P1;SDS_P2;PMS_P1;PMS_P2;Temp;Humidity;BMP_temperature;BMP_pressure;BME280_temperature;BME280_humidity;BME280_pressure;Samples;Min_cycle;Max_cycle;Signal;HPM_P1;HPM_P2
2022/11/06 00:00:15;;;;;;;10.02;5.93;;;;;;;15.77;58.48;101394.94;5083310;28;20051;-71
2022/11/06 00:02:41;;;;;;;10.32;6.75;;;;;;;16.26;57.13;101409.53;5084605;28;20521;-71
2022/11/06 00:07:51;;;;;;;15.07;6.43;;;;;;;16.22;57.03;101402.16;5082111;28;20039;-70
2022/11/06 00:10:17;;;;;;;9.25;6.30;;;;;;;16.49;56.89;101386.88;5082311;28;20037;-72
2022/11/06 00:12:43;;;;;;;9.50;6.45;;;;;;;16.10;57.84;101390.56;5082679;28;20081;-72
2022/11/06 00:15:09;;;;;;;9.27;5.95;;;;;;;15.90;58.90;101390.28;5082773;28;20036;-72
2022/11/06 00:17:35;;;;;;;12.25;6.18;;;;;;;15.42;60.36;101398.91;5081626;28;20452;-72
2022/11/06 00:20:02;;;;;;;8.65;5.60;;;;;;;15.83;58.97;101390.44;5084882;28;20139;-72
2022/11/06 00:22:32;;;;;;;15.95;6.13;;;;;;;15.96;57.96;101392.00;5082502;28;20090;-71
2022/11/06 00:24:57;;;;;;;13.13;5.75;;;;;;;16.52;56.27;101381.75;5081947;28;20065;-72
2022/11/06 00:27:23;;;;;;;13.80;6.45;;;;;;;16.07;58.08;101388.38;5082660;28;20504;-72
2022/11/06 00:29:48;;;;;;;11.77;7.15;;;;;;;16.22;57.81;101394.84;5079763;28;20044;-72
2022/11/06 00:32:13;;;;;;;15.23;7.85;;;;;;;16.13;57.44;101396.34;5082311;28;20036;-71
2022/11/06 00:34:39;;;;;;;15.68;6.13;;;;;;;15.82;58.70;101396.94;5082196;28;20040;-70
2022/11/06 00:37:04;;;;;;;16.13;6.00;;;;;;;15.70;58.97;101388.84;5080790;28;20498;-72
2022/11/06 00:39:29;;;;;;;15.70;6.40;;;;;;;15.56;59.57;101387.53;5081371;28;20039;-71
2022/11/06 00:41:55;;;;;;;15.50;5.55;;;;;;;15.48;59.65;101393.34;5083556;28;20037;-71
2022/11/06 00:44:20;;;;;;;12.52;5.70;;;;;;;15.62;59.57;101391.16;5081677;28;20028;-72
2022/11/06 00:46:45;;;;;;;17.88;7.40;;;;;;;15.77;59.15;101391.41;5080661;28;20495;-72
2022/11/06 00:49:11;;;;;;;13.52;5.82;;;;;;;15.81;59.18;101396.09;5080843;28;20024;-70
2022/11/06 00:51:40;;;;;;;11.68;6.13;;;;;;;16.81;56.37;101385.09;5083241;28;20037;-70
2022/11/06 00:54:09;;;;;;;14.27;6.00;;;;;;;16.53;58.09;101386.09;5079417;28;20052;-71
2022/11/06 00:56:35;;;;;;;12.17;6.77;;;;;;;16.23;58.26;101387.53;5081486;28;20036;-71
2022/11/06 00:59:05;;;;;;;10.73;5.70;;;;;;;15.91;60.43;101392.72;5083157;28;20033;-70
2022/11/06 01:01:37;;;;;;;14.07;6.43;;;;;;;15.95;60.53;101393.06;5080704;28;20028;-72
2022/11/06 01:04:04;;;;;;;17.45;7.85;;;;;;;15.26;62.54;101397.78;5080778;28;20028;-73
2022/11/06 01:06:33;;;;;;;16.55;6.47;;;;;;;16.09;60.22;101386.22;5080526;28;20119;-71
2022/11/06 01:08:59;;;;;;;13.57;7.00;;;;;;;16.02;60.56;101378.25;5080912;28;20490;-71
2022/11/06 01:11:30;;;;;;;9.68;6.18;;;;;;;16.06;60.39;101370.47;5082522;28;20032;-70
2022/11/06 01:13:56;;;;;;;;;;;;;;;16.24;59.69;101376.44;5080746;28;20049;-71
2022/11/06 01:16:23;;;;;;;14.27;7.45;;;;;;;15.70;61.10;101369.09;5079770;28;19916;-71
2022/11/06 01:18:50;;;;;;;17.15;6.60;;;;;;;15.55;62.21;101366.09;5079945;28;20143;-73
2022/11/06 01:21:24;;;;;;;13.10;6.88;;;;;;;15.77;61.07;101364.31;5081067;28;20036;-71
2022/11/06 01:23:58;;;;;;;15.88;7.03;;;;;;;15.21;62.19;101375.22;5079933;28;20047;-70
2022/11/06 01:26:26;;;;;;;17.83;7.93;;;;;;;15.42;62.11;101378.09;5079853;28;20044;-70
2022/11/06 01:28:52;;;;;;;14.38;6.53;;;;;;;15.73;61.15;101365.88;5083388;28;20032;-70
2022/11/06 01:31:21;;;;;;;15.38;7.18;;;;;;;15.88;60.45;101366.09;5081719;28;20523;-71
2022/11/06 01:33:46;;;;;;;21.27;6.60;;;;;;;15.77;60.70;101359.72;5081211;28;20169;-71
2022/11/06 01:36:19;;;;;;;9.20;6.63;;;;;;;15.89;61.53;101346.06;5085332;28;20114;-72
2022/11/06 01:38:47;;;;;;;14.52;6.30;;;;;;;15.11;63.31;101356.06;5082997;28;20024;-70
2022/11/06 01:41:15;;;;;;;14.77;6.95;;;;;;;15.74;61.82;101338.50;5081110;28;20040;-70
2022/11/06 01:43:49;;;;;;;17.58;7.18;;;;;;;15.71;60.87;101339.03;5072918;28;20068;-71
2022/11/06 01:46:18;;;;;;;10.30;6.80;;;;;;;16.12;60.49;101336.91;5080277;28;20039;-71
2022/11/06 01:49:12;;;;;;;20.15;6.43;;;;;;;15.48;62.70;101338.34;5082006;28;20492;-71
2022/11/06 01:51:57;;;;;;;18.38;6.15;;;;;;;15.40;62.07;101342.25;5077158;28;20500;-72
2022/11/06 01:54:25;;;;;;;16.15;6.65;;;;;;;15.93;61.39;101338.25;5082197;28;20036;-72
2022/11/06 01:56:53;;;;;;;17.30;6.03;;;;;;;16.30;60.26;101331.22;5092293;28;20508;-71
2022/11/06 01:59:22;;;;;;;15.55;7.35;;;;;;;16.73;58.05;101333.97;5092681;28;20032;-72
2022/11/06 02:01:48;;;;;;;13.50;6.03;;;;;;;15.86;60.56;101330.31;5091930;28;20101;-71
2022/11/06 02:04:23;;;;;;;14.57;5.68;;;;;;;15.87;61.17;101336.53;5088261;28;20039;-70
2022/11/06 02:06:49;;;;;;;16.42;6.15;;;;;;;16.03;60.52;101331.13;5081394;28;20034;-71
2022/11/06 02:09:15;;;;;;;15.18;6.60;;;;;;;15.77;61.17;101337.22;5080446;28;20032;-72
2022/11/06 02:12:11;;;;;;;13.77;6.15;;;;;;;16.46;59.43;101333.06;5080805;28;20194;-71
2022/11/06 02:14:39;;;;;;;13.73;5.97;;;;;;;15.90;61.36;101339.56;5028276;28;20051;-70
2022/11/06 02:17:23;;;;;;;21.92;6.68;;;;;;;15.51;61.69;101335.16;5026308;28;20408;-71
2022/11/06 02:19:55;;;;;;;13.68;5.40;;;;;;;15.37;62.42;101333.81;5027011;28;20030;-72
2022/11/06 02:22:49;;;;;;;14.00;6.20;;;;;;;16.22;59.52;101321.63;5026235;28;20068;-71
2022/11/06 02:25:28;;;;;;;12.75;5.28;;;;;;;16.16;59.34;101322.63;5027607;28;20061;-72
2022/11/06 02:28:02;;;;;;;13.25;4.43;;;;;;;15.86;61.02;101326.78;5027324;28;20064;-71
2022/11/06 02:30:32;;;;;;;17.15;5.50;;;;;;;15.97;59.85;101315.00;5026568;28;20102;-71
2022/11/06 02:33:02;;;;;;;13.05;4.85;;;;;;;16.26;59.75;101317.34;5027981;28;20041;-72
2022/11/06 02:35:31;;;;;;;;;;;;;;;16.21;59.37;101311.84;5029402;28;20033;-73
2022/11/06 02:38:07;;;;;;;12.35;4.43;;;;;;;16.02;60.07;101315.91;5028184;28;19917;-70
2022/11/06 02:40:38;;;;;;;19.17;5.25;;;;;;;15.94;60.35;101313.63;5028195;28;20537;-72
2022/11/06 02:43:09;;;;;;;11.63;4.40;;;;;;;16.43;58.56;101315.38;5025901;28;20050;-72
2022/11/06 02:45:46;;;;;;;11.23;5.00;;;;;;;16.24;59.56;101303.19;5028252;28;20533;-72
2022/11/06 02:48:14;;;;;;;10.70;4.68;;;;;;;16.07;59.83;101301.59;5026706;28;20045;-72
2022/11/06 02:50:44;;;;;;;12.90;5.28;;;;;;;16.66;58.08;101304.31;5034053;28;20036;-71
2022/11/06 02:53:13;;;;;;;19.42;4.07;;;;;;;16.04;59.37;101296.69;5080779;28;20063;-72
2022/11/06 02:55:46;;;;;;;16.58;5.07;;;;;;;15.58;61.66;101298.72;5081971;28;20127;-71
2022/11/06 02:58:19;;;;;;;15.35;5.03;;;;;;;15.94;59.31;101294.63;5072027;28;20043;-72
2022/11/06 03:00:51;;;;;;;18.77;4.72;;;;;;;15.95;60.32;101293.59;5070919;28;20032;-71
2022/11/06 03:03:28;;;;;;;8.57;4.47;;;;;;;15.74;60.23;101287.03;5070988;28;20040;-72
2022/11/06 03:06:03;;;;;;;7.32;3.58;;;;;;;15.93;59.86;101290.31;5070984;28;20044;-73
2022/11/06 03:08:41;;;;;;;16.58;4.25;;;;;;;16.30;58.20;101294.06;5071417;28;20499;-72
2022/11/06 03:11:42;;;;;;;8.27;3.72;;;;;;;16.54;58.35;101291.94;5070882;28;20496;-69
2022/11/06 03:14:25;;;;;;;13.07;4.25;;;;;;;16.93;56.86;101289.94;4997322;28;20103;-71
2022/11/06 03:17:04;;;;;;;15.60;4.03;;;;;;;16.21;58.47;101301.00;5007584;28;20107;-72
2022/11/06 03:19:42;;;;;;;8.95;3.80;;;;;;;14.75;63.84;101295.03;5008480;28;20640;-71
2022/11/06 03:22:30;;;;;;;12.60;3.80;;;;;;;16.00;59.89;101287.44;5005988;28;20034;-72
2022/11/06 03:25:07;;;;;;;16.63;4.50;;;;;;;15.45;61.80;101288.19;5008362;28;20486;-72
2022/11/06 03:27:39;;;;;;;11.38;3.92;;;;;;;16.31;58.54;101278.63;5008191;28;20053;-71
2022/11/06 03:30:06;;;;;;;11.15;4.70;;;;;;;15.87;59.71;101285.03;5008078;28;20050;-70
2022/11/06 03:32:55;;;;;;;10.00;3.60;;;;;;;16.45;58.56;101291.53;5007808;28;20045;-72
2022/11/06 03:35:31;;;;;;;10.05;3.75;;;;;;;15.32;61.53;101293.91;5008330;28;20125;-70
2022/11/06 03:38:04;;;;;;;10.48;3.72;;;;;;;15.77;60.46;101291.97;5008320;28;20553;-70
2022/11/06 03:40:35;;;;;;;10.55;3.60;;;;;;;16.15;59.27;101282.19;5007965;28;20037;-71
2022/11/06 03:43:05;;;;;;;23.75;4.20;;;;;;;15.80;59.93;101282.53;5008049;28;20045;-71
2022/11/06 03:45:32;;;;;;;9.38;3.55;;;;;;;15.84;60.05;101281.75;5008116;28;20406;-73
2022/11/06 03:48:23;;;;;;;10.43;3.40;;;;;;;15.60;60.89;101290.34;5043771;28;20487;-71
2022/11/06 03:51:04;;;;;;;13.07;3.58;;;;;;;16.50;57.90;101280.78;5090687;28;20036;-72
2022/11/06 03:53:40;;;;;;;12.50;3.80;;;;;;;15.98;59.94;101286.84;5090502;28;20039;-70
2022/11/06 03:56:13;;;;;;;9.50;3.63;;;;;;;16.52;58.22;101292.22;5091054;28;20111;-71
2022/11/06 03:58:44;;;;;;;8.93;3.08;;;;;;;16.49;57.98;101279.13;5088842;28;20063;-71
2022/11/06 04:01:10;;;;;;;;;;;;;;;15.75;60.34;101288.69;5090847;28;20040;-70
2022/11/06 04:03:49;;;;;;;13.60;3.90;;;;;;;15.75;60.16;101280.56;5090476;28;19919;-71
2022/11/06 04:06:22;;;;;;;14.90;3.65;;;;;;;16.04;59.79;101283.16;5090326;28;20028;-70
2022/11/06 04:14:24;;;;;;;10.13;3.95;;;;;;;15.50;62.33;101282.88;5080899;28;20031;-72
2022/11/06 04:16:55;;;;;;;18.75;4.45;;;;;;;16.14;59.98;101272.41;5088174;28;20059;-72
2022/11/06 04:19:21;;;;;;;;;;;;;;;16.08;60.36;101266.09;5090697;28;20040;-72
2022/11/06 04:22:14;;;;;;;11.43;3.50;;;;;;;15.78;60.86;101265.69;5090220;28;19916;-70
2022/11/06 04:28:08;;;;;;;16.58;5.25;;;;;;;16.59;58.38;101271.13;5090308;28;20039;-72
2022/11/06 04:30:45;;;;;;;8.30;3.25;;;;;;;15.66;60.57;101268.47;5094123;28;20039;-70
2022/11/06 04:33:19;;;;;;;13.18;3.72;;;;;;;15.74;60.84;101270.78;5093615;28;20043;-72
2022/11/06 04:36:18;;;;;;;12.98;3.90;;;;;;;16.15;59.64;101274.91;5094039;28;20108;-71
2022/11/06 04:39:04;;;;;;;15.90;3.45;;;;;;;16.26;59.53;101265.81;5093244;28;20144;-71
2022/11/06 04:41:41;;;;;;;15.15;3.50;;;;;;;16.34;58.53;101265.38;5093547;28;20043;-70
2022/11/06 04:44:12;;;;;;;8.10;2.95;;;;;;;16.24;58.58;101254.38;5093987;28;20035;-70
2022/11/06 04:46:59;;;;;;;14.10;3.63;;;;;;;16.55;58.20;101255.59;5093585;28;20039;-72
2022/11/06 04:49:28;;;;;;;10.95;3.08;;;;;;;16.52;57.73;101247.97;5093336;28;20089;-71
2022/11/06 04:51:54;;;;;;;7.13;3.08;;;;;;;16.10;59.15;101255.81;5077738;28;20584;-71
2022/11/06 04:54:21;;;;;;;8.38;3.20;;;;;;;16.34;57.98;101256.41;5073277;28;20032;-71
2022/11/06 04:56:47;;;;;;;7.30;3.00;;;;;;;15.99;59.44;101251.34;5073378;28;20029;-71
2022/11/06 04:59:15;;;;;;;11.68;4.03;;;;;;;16.01;59.49;101251.09;5073738;28;20013;-71
2022/11/06 05:01:40;;;;;;;16.80;3.85;;;;;;;16.60;57.71;101242.94;5078583;28;20032;-71
2022/11/06 05:04:08;;;;;;;12.20;2.78;;;;;;;16.46;57.33;101238.09;5092668;28;20220;-71
2022/11/06 05:06:33;;;;;;;11.02;2.78;;;;;;;16.73;57.57;101241.69;5092362;28;20067;-70
2022/11/06 05:09:00;;;;;;;10.85;2.85;;;;;;;17.10;56.23;101237.16;5092427;28;20070;-72
2022/11/06 05:11:25;;;;;;;10.10;3.55;;;;;;;16.48;57.94;101244.09;5092708;28;20040;-70
2022/11/06 05:13:50;;;;;;;9.88;2.83;;;;;;;16.99;56.60;101237.31;5093829;28;20039;-72
2022/11/06 05:16:16;;;;;;;9.40;2.60;;;;;;;17.41;55.36;101240.94;5091579;28;20059;-71
2022/11/06 05:18:41;;;;;;;12.60;3.30;;;;;;;16.64;57.09;101243.22;5093346;28;20534;-72
2022/11/06 05:23:51;;;;;;;7.32;2.80;;;;;;;16.83;56.78;101239.06;5072952;28;20085;-70
2022/11/06 05:26:16;;;;;;;12.68;2.83;;;;;;;16.92;56.69;101234.00;5074071;28;20025;-71
2022/11/06 05:28:42;;;;;;;11.88;3.00;;;;;;;16.85;56.61;101230.66;5075787;28;20660;-72
2022/11/06 05:31:07;;;;;;;8.45;2.38;;;;;;;16.78;57.33;101221.94;5093628;28;20036;-71
2022/11/06 05:33:32;;;;;;;8.20;2.70;;;;;;;16.69;57.61;101213.41;5093714;28;20082;-71
2022/11/06 05:36:02;;;;;;;11.70;3.20;;;;;;;16.71;57.82;101216.69;5093425;28;20466;-70
2022/11/06 05:38:28;;;;;;;15.17;3.13;;;;;;;16.92;56.83;101213.13;5092391;28;20043;-73
2022/11/06 05:40:54;;;;;;;9.93;3.22;;;;;;;16.35;58.66;101209.22;5093461;28;20975;-71
2022/11/06 05:43:19;;;;;;;12.35;2.70;;;;;;;17.04;56.32;101204.81;5093330;28;20505;-70
2022/11/06 05:45:44;;;;;;;11.23;3.15;;;;;;;16.42;58.11;101199.81;5093435;28;20055;-70
2022/11/06 05:48:10;;;;;;;12.30;3.42;;;;;;;15.92;59.88;101215.47;5077541;28;20454;-71
2022/11/06 05:50:35;;;;;;;10.73;3.45;;;;;;;15.45;61.34;101208.84;5084165;28;20021;-72
2022/11/06 05:53:00;;;;;;;9.27;2.72;;;;;;;16.53;58.62;101212.44;5093731;28;20051;-71
2022/11/06 05:55:26;;;;;;;18.17;4.20;;;;;;;16.23;59.27;101201.25;5093215;28;20089;-69
2022/11/06 05:57:51;;;;;;;9.55;2.70;;;;;;;16.33;59.35;101198.63;5093260;28;20123;-71
2022/11/06 06:00:16;;;;;;;12.32;2.20;;;;;;;16.68;57.68;101199.06;5093162;28;20112;-73
2022/11/06 06:02:42;;;;;;;7.38;2.97;;;;;;;16.32;59.30;101207.00;5093306;28;20043;-72
2022/11/06 06:05:08;;;;;;;10.73;2.80;;;;;;;16.89;57.06;101199.22;5093546;28;20560;-72
2022/11/06 06:07:33;;;;;;;6.60;2.42;;;;;;;16.27;59.21;101202.38;5092941;28;20066;-70
2022/11/06 06:09:59;;;;;;;16.35;2.90;;;;;;;16.26;59.15;101208.84;5092740;28;20659;-71
2022/11/06 06:12:25;;;;;;;11.10;2.40;;;;;;;15.90;59.74;101204.06;5092654;28;20051;-72
2022/11/06 06:14:54;;;;;;;6.43;2.65;;;;;;;16.69;57.98;101192.53;5091051;28;20484;-71
2022/11/06 06:17:20;;;;;;;17.00;3.30;;;;;;;17.21;56.16;101181.03;5084109;28;20115;-73
2022/11/06 06:19:46;;;;;;;7.55;2.47;;;;;;;17.04;56.81;101181.16;5092150;28;20127;-72
2022/11/06 06:22:11;;;;;;;8.70;2.58;;;;;;;16.12;59.81;101185.91;5092832;28;20489;-72
2022/11/06 06:24:37;;;;;;;7.88;2.25;;;;;;;16.86;57.71;101172.59;5092778;28;20028;-71
2022/11/06 06:27:03;;;;;;;9.98;3.15;;;;;;;16.64;58.40;101172.69;5092864;28;20020;-72
2022/11/06 06:29:28;;;;;;;10.55;3.17;;;;;;;16.31;59.28;101167.41;5093266;28;20030;-71
2022/11/06 06:31:53;;;;;;;11.50;2.75;;;;;;;15.95;60.07;101170.78;5092786;28;20048;-71
2022/11/06 06:34:19;;;;;;;17.35;4.28;;;;;;;16.51;58.74;101171.19;5092606;28;20447;-71
2022/11/06 06:36:49;;;;;;;6.35;2.45;;;;;;;16.38;58.87;101168.03;5092504;28;20036;-70
2022/11/06 06:39:14;;;;;;;10.23;2.83;;;;;;;16.39;58.54;101183.25;5092423;28;20024;-71
2022/11/06 06:41:40;;;;;;;9.05;3.35;;;;;;;16.47;58.21;101175.44;5092329;28;20137;-72
2022/11/06 06:44:05;;;;;;;11.98;2.70;;;;;;;16.32;59.06;101175.28;5092927;28;20364;-70
2022/11/06 06:46:30;;;;;;;7.57;3.80;;;;;;;16.59;58.58;101153.63;5090238;28;20039;-70
2022/11/06 06:48:56;;;;;;;11.43;3.10;;;;;;;16.14;59.70;101159.34;5071918;28;20086;-71
2022/11/06 06:51:21;;;;;;;11.00;2.40;;;;;;;16.82;57.43;101156.03;5089213;28;20067;-70
2022/11/06 06:53:47;;;;;;;10.32;2.17;;;;;;;16.75;57.59;101157.28;5091578;28;20069;-71
2022/11/06 06:56:12;;;;;;;13.23;2.55;;;;;;;15.98;60.25;101165.66;5092485;28;20132;-72
2022/11/06 06:58:37;;;;;;;10.60;2.72;;;;;;;16.36;58.75;101162.03;5092264;28;20114;-71
2022/11/06 07:01:04;;;;;;;8.00;2.22;;;;;;;16.76;57.86;101169.78;5091613;28;20050;-70
2022/11/06 07:03:30;;;;;;;17.38;2.85;;;;;;;16.63;57.79;101171.03;5092063;28;20043;-70
2022/11/06 07:05:57;;;;;;;11.85;2.65;;;;;;;16.28;59.77;101170.63;5091893;28;20464;-70
2022/11/06 07:08:23;;;;;;;9.77;2.42;;;;;;;16.15;59.39;101162.91;5091549;28;20483;-71
2022/11/06 07:10:49;;;;;;;7.10;2.53;;;;;;;16.97;57.23;101158.84;5090607;28;20175;-72
2022/11/06 07:13:14;;;;;;;12.43;2.20;;;;;;;16.76;57.92;101161.66;5086913;28;20400;-72
2022/11/06 07:15:40;;;;;;;14.65;3.03;;;;;;;17.01;56.43;101167.28;5083848;28;20047;-72
2022/11/06 07:18:06;;;;;;;13.65;2.90;;;;;;;16.79;57.53;101180.13;5077667;28;20035;-71
2022/11/06 07:20:31;;;;;;;7.78;2.45;;;;;;;16.19;59.52;101183.84;5080506;28;20515;-71
2022/11/06 07:22:57;;;;;;;8.95;2.45;;;;;;;16.78;58.67;101184.75;5079035;28;20104;-71
2022/11/06 07:25:24;;;;;;;13.93;2.45;;;;;;;16.61;59.56;101179.44;5079670;28;20059;-71
2022/11/06 07:27:49;;;;;;;14.25;3.95;;;;;;;16.64;59.50;101169.97;5079879;28;20036;-70
2022/11/06 07:30:15;;;;;;;9.10;3.50;;;;;;;16.60;58.95;101157.97;5079563;28;20088;-70
2022/11/06 07:32:41;;;;;;;7.13;2.60;;;;;;;16.87;58.74;101166.91;5078866;28;20104;-72
2022/11/06 07:35:07;;;;;;;11.95;2.85;;;;;;;16.81;58.48;101153.53;5079493;28;20057;-72
2022/11/06 07:37:32;;;;;;;7.95;3.00;;;;;;;16.25;60.55;101155.69;5080463;28;20039;-72
2022/11/06 07:39:57;;;;;;;8.65;2.60;;;;;;;16.75;58.93;101151.84;5077535;28;20055;-73
2022/11/06 07:42:23;;;;;;;10.13;2.50;;;;;;;16.21;60.45;101143.72;5078747;28;20036;-72
2022/11/06 07:44:53;;;;;;;10.75;2.35;;;;;;;16.61;59.32;101159.59;5078744;28;20044;-72
2022/11/06 07:47:18;;;;;;;9.32;2.13;;;;;;;16.66;58.89;101149.63;5078301;28;20379;-69
2022/11/06 07:49:44;;;;;;;11.32;2.75;;;;;;;16.36;60.68;101149.31;5080317;28;20035;-72
2022/11/06 07:52:09;;;;;;;7.65;2.35;;;;;;;16.22;60.92;101152.66;5078638;28;20101;-70
2022/11/06 07:54:34;;;;;;;6.97;2.42;;;;;;;16.50;60.03;101153.28;5078402;28;20039;-71
2022/11/06 07:57:01;;;;;;;11.00;2.85;;;;;;;16.34;60.22;101158.75;5080297;28;20058;-70
2022/11/06 07:59:26;;;;;;;15.20;4.95;;;;;;;16.27;60.08;101150.84;5079756;28;20400;-70
2022/11/06 08:01:52;;;;;;;11.80;2.80;;;;;;;16.82;59.35;101147.06;5078020;28;20045;-71
2022/11/06 08:04:17;;;;;;;10.95;2.83;;;;;;;17.32;57.90;101148.25;5081979;28;20032;-71
2022/11/06 08:06:43;;;;;;;12.43;3.20;;;;;;;17.06;57.89;101138.28;5082477;28;20090;-70
2022/11/06 08:09:08;;;;;;;9.48;2.42;;;;;;;17.23;57.33;101138.97;5082480;28;20369;-70
2022/11/06 08:11:34;;;;;;;8.15;1.92;;;;;;;17.04;58.39;101143.16;5086800;28;20044;-71
2022/11/06 08:14:00;;;;;;;7.57;2.67;;;;;;;16.12;60.92;101145.22;5083881;28;20468;-70
2022/11/06 08:16:25;;;;;;;16.17;2.90;;;;;;;16.54;59.26;101140.00;5082762;28;20036;-71
2022/11/06 08:18:51;;;;;;;6.38;2.03;;;;;;;16.79;59.10;101142.94;5081699;28;20044;-71
2022/11/06 08:21:16;;;;;;;10.10;2.28;;;;;;;17.05;58.58;101143.97;5083431;28;20035;-70
2022/11/06 08:23:41;;;;;;;15.57;2.75;;;;;;;16.82;58.67;101153.31;5080338;28;20036;-72
2022/11/06 08:26:07;;;;;;;4.68;2.22;;;;;;;17.06;58.51;101156.47;5082817;28;20388;-72
2022/11/06 08:28:32;;;;;;;6.68;2.25;;;;;;;17.11;57.56;101159.22;5082312;28;20069;-73
2022/11/06 08:31:03;;;;;;;6.65;2.47;;;;;;;17.20;57.94;101147.63;5082665;28;20029;-72
2022/11/06 08:33:28;;;;;;;11.80;2.83;;;;;;;16.67;59.15;101145.84;5081910;28;20036;-72
2022/11/06 08:35:53;;;;;;;17.83;3.15;;;;;;;17.42;57.41;101133.91;5083353;28;20085;-72
2022/11/06 08:38:19;;;;;;;9.98;2.88;;;;;;;17.37;57.57;101123.00;5082030;28;20593;-70
2022/11/06 08:40:44;;;;;;;7.38;2.70;;;;;;;17.70;56.67;101119.13;5082159;28;20036;-71
2022/11/06 08:43:10;;;;;;;9.00;1.92;;;;;;;17.62;56.89;101112.31;5079829;28;20484;-72
2022/11/06 08:45:37;;;;;;;7.85;2.17;;;;;;;17.68;56.43;101108.53;5074949;28;20036;-73
2022/11/06 08:48:03;;;;;;;14.38;2.50;;;;;;;17.29;57.57;101110.75;5082656;28;20075;-71
2022/11/06 08:50:30;;;;;;;7.00;1.70;;;;;;;17.55;57.16;101115.25;5084827;28;20114;-72
2022/11/06 08:52:57;;;;;;;10.95;2.25;;;;;;;18.06;56.29;101113.53;5080068;28;20062;-71
2022/11/06 08:55:22;;;;;;;6.97;1.73;;;;;;;17.51;57.04;101111.44;5077155;28;20091;-72
2022/11/06 08:57:48;;;;;;;9.77;2.33;;;;;;;17.95;56.01;101101.00;5080939;28;20068;-71
2022/11/06 09:00:14;;;;;;;9.32;3.38;;;;;;;17.84;56.40;101099.34;5082635;28;20089;-69
2022/11/06 09:02:40;;;;;;;6.53;2.20;;;;;;;17.63;56.97;101094.91;5079913;28;20392;-71
2022/11/06 09:05:06;;;;;;;13.40;2.42;;;;;;;17.56;56.91;101091.63;5081960;28;20015;-70
2022/11/06 09:07:31;;;;;;;5.78;1.92;;;;;;;17.78;56.64;101084.09;5083917;28;20490;-70
2022/11/06 09:09:56;;;;;;;9.63;1.90;;;;;;;17.87;56.63;101081.66;5080516;28;20059;-71
2022/11/06 09:12:22;;;;;;;11.27;2.53;;;;;;;17.99;55.72;101072.19;5083028;28;20052;-69
2022/11/06 09:14:47;;;;;;;15.80;2.70;;;;;;;18.13;55.38;101081.47;5071451;28;20098;-69
2022/11/06 09:17:12;;;;;;;8.30;3.00;;;;;;;18.28;55.01;101072.50;5085084;28;20527;-70
2022/11/06 09:19:38;;;;;;;8.73;2.00;;;;;;;18.70;53.70;101064.94;5092474;28;20048;-69
2022/11/06 09:22:03;;;;;;;8.45;2.38;;;;;;;18.07;55.50;101068.94;5092772;28;20044;-70
2022/11/06 09:24:28;;;;;;;4.38;1.95;;;;;;;18.28;55.13;101073.34;5092608;28;20043;-71
2022/11/06 09:26:54;;;;;;;3.22;1.80;;;;;;;18.60;54.28;101061.41;5092726;28;20032;-70
2022/11/06 09:29:19;;;;;;;11.60;2.65;;;;;;;18.55;54.70;101067.69;5085539;28;20032;-69
2022/11/06 09:31:45;;;;;;;8.85;2.42;;;;;;;17.99;55.57;101053.16;5072569;28;20044;-69
2022/11/06 09:34:10;;;;;;;6.50;2.17;;;;;;;18.33;55.39;101058.94;5071301;28;20370;-71
2022/11/06 09:36:36;;;;;;;6.43;1.90;;;;;;;18.88;53.89;101050.78;5082901;28;20036;-69
2022/11/06 09:39:02;;;;;;;4.03;1.73;;;;;;;18.13;55.24;101048.84;5081789;28;20088;-69
2022/11/06 09:41:55;;;;;;;7.57;2.00;;;;;;;18.29;55.33;101047.78;5079994;28;20074;-70
2022/11/06 09:44:40;;;;;;;6.20;1.92;;;;;;;18.31;55.17;101037.44;5072100;28;20511;-71
2022/11/06 09:47:15;;;;;;;12.75;3.35;;;;;;;18.25;55.71;101041.25;5070200;28;20052;-70
2022/11/06 09:49:49;;;;;;;5.93;2.00;;;;;;;18.52;54.51;101041.00;5074453;28;20028;-68
2022/11/06 09:52:32;;;;;;;6.88;1.75;;;;;;;18.50;54.95;101032.28;5093100;28;20040;-70
2022/11/06 09:55:14;;;;;;;9.13;2.10;;;;;;;18.63;54.56;101031.75;5091364;28;20042;-69
2022/11/06 09:57:58;;;;;;;8.20;2.03;;;;;;;17.80;56.09;101024.84;5092153;28;20244;-69
2022/11/06 10:00:24;;;;;;;5.38;2.08;;;;;;;18.94;54.98;101027.06;5090176;28;20115;-69
2022/11/06 10:02:59;;;;;;;8.98;2.13;;;;;;;18.76;54.22;101030.38;5091912;28;20054;-68
2022/11/06 10:05:27;;;;;;;5.28;1.98;;;;;;;19.54;52.79;101034.25;5073878;28;20021;-69
2022/11/06 10:07:57;;;;;;;7.03;2.45;;;;;;;18.67;55.06;101027.38;5071402;28;20040;-71
2022/11/06 10:10:35;;;;;;;10.30;1.90;;;;;;;18.80;54.05;101034.16;5070441;28;20032;-71
2022/11/06 10:13:27;;;;;;;8.55;1.60;;;;;;;18.78;54.06;101036.34;5071325;28;20099;-70
2022/11/06 10:15:58;;;;;;;10.25;2.00;;;;;;;18.35;55.14;101032.25;5070810;28;20040;-70
2022/11/06 10:18:32;;;;;;;10.32;1.50;;;;;;;17.91;55.87;101031.94;5070993;28;20147;-70
2022/11/06 10:21:41;;;;;;;6.40;1.70;;;;;;;18.06;55.39;101025.72;5071151;28;20121;-70
2022/11/06 10:24:19;;;;;;;5.53;1.75;;;;;;;18.69;54.44;101024.41;5008752;28;20038;-70
2022/11/06 10:26:50;;;;;;;8.20;1.75;;;;;;;18.45;54.71;101018.69;5008531;28;20046;-69
2022/11/06 10:29:37;;;;;;;13.63;2.45;;;;;;;18.69;54.63;101011.56;5009208;28;20034;-71
2022/11/06 10:32:05;;;;;;;9.70;2.42;;;;;;;19.35;52.69;101015.00;5008910;28;20054;-71
2022/11/06 10:34:34;;;;;;;10.07;2.22;;;;;;;18.97;53.48;101010.16;5008082;28;20046;-72
2022/11/06 10:37:07;;;;;;;5.22;1.92;;;;;;;18.87;53.69;101004.75;5008291;28;20074;-70
2022/11/06 10:39:34;;;;;;;11.25;1.90;;;;;;;18.97;53.31;101002.81;5018209;28;20037;-70
2022/11/06 10:42:15;;;;;;;5.80;2.05;;;;;;;18.80;54.76;100999.59;5025583;28;20061;-70
2022/11/06 10:44:43;;;;;;;;;;;;;;;19.37;52.45;100993.72;5025198;28;20037;-69
2022/11/06 10:47:18;;;;;;;10.43;2.58;;;;;;;19.53;52.31;100983.56;5027760;28;20369;-69
2022/11/06 10:49:52;;;;;;;4.18;1.75;;;;;;;18.84;53.18;100980.78;5025119;28;20105;-70
2022/11/06 10:52:36;;;;;;;12.45;1.88;;;;;;;18.92;52.70;100975.59;5024974;28;20497;-72
2022/11/06 10:55:25;;;;;;;7.95;1.95;;;;;;;19.44;51.99;100971.63;5025213;28;20592;-70
2022/11/06 10:58:02;;;;;;;5.63;2.00;;;;;;;19.01;52.48;100970.38;5026971;28;20127;-69
2022/11/06 11:00:28;;;;;;;10.98;2.05;;;;;;;18.89;53.82;100967.16;5073902;28;20569;-69
2022/11/06 11:03:02;;;;;;;15.77;2.60;;;;;;;18.86;53.30;100968.53;5080534;28;20063;-69
2022/11/06 11:05:39;;;;;;;9.00;2.33;;;;;;;19.16;52.84;100960.25;5076338;28;20107;-70
2022/11/06 11:08:05;;;;;;;9.18;1.90;;;;;;;19.05;53.12;100966.84;5078637;28;20047;-70
2022/11/06 11:10:35;;;;;;;12.30;1.70;;;;;;;18.97;53.53;100972.84;5078720;28;20408;-70
2022/11/06 11:13:04;;;;;;;8.23;2.13;;;;;;;19.07;53.11;100964.66;5092711;28;20120;-72
2022/11/06 11:15:51;;;;;;;10.48;1.70;;;;;;;19.66;51.76;100958.38;5078365;28;20044;-70
2022/11/06 11:18:33;;;;;;;9.75;1.70;;;;;;;19.36;52.64;100953.91;5077654;28;20029;-69
2022/11/06 11:21:17;;;;;;;5.90;1.73;;;;;;;19.14;52.87;100954.25;5079812;28;20506;-70
2022/11/06 11:24:02;;;;;;;5.53;1.60;;;;;;;19.02;53.23;100944.78;5078819;28;20028;-70
2022/11/06 11:26:30;;;;;;;8.82;1.50;;;;;;;18.69;53.55;100940.00;5079841;28;20033;-69
2022/11/06 11:28:59;;;;;;;3.15;1.20;;;;;;;19.21;52.80;100933.00;5077740;28;20048;-69
2022/11/06 11:31:32;;;;;;;10.30;2.60;;;;;;;19.00;52.90;100927.91;5078971;28;20079;-70
2022/11/06 11:34:02;;;;;;;4.50;2.30;;;;;;;19.58;51.57;100926.25;5084199;28;20046;-69
2022/11/06 11:37:07;;;;;;;9.18;1.70;;;;;;;19.09;52.38;100921.59;5078428;28;20423;-69
2022/11/06 11:39:34;;;;;;;11.38;2.30;;;;;;;18.84;53.20;100913.53;5016858;28;20041;-69
2022/11/06 11:42:23;;;;;;;8.25;1.67;;;;;;;18.71;52.78;100913.31;5040303;28;20045;-69
2022/11/06 11:45:07;;;;;;;4.18;1.50;;;;;;;18.83;53.16;100898.28;5039334;28;21616;-70
2022/11/06 11:47:34;;;;;;;9.50;1.60;;;;;;;18.90;52.23;100892.53;5040130;28;20742;-69
2022/11/06 11:50:15;;;;;;;5.90;1.95;;;;;;;18.87;52.27;100887.66;5033493;28;20033;-70